createdAt,value
2023-03-21T00:03:36.917Z,61.00
2023-03-21T00:08:41.427Z,54.00
2023-03-21T00:13:45.076Z,60.40
2023-03-21T00:18:52.861Z,45.20
2023-03-21T00:23:56.511Z,39.20
2023-03-21T00:29:00.716Z,32.60
2023-03-21T00:34:04.538Z,24.30
2023-03-21T00:39:08.502Z,25.20
2023-03-21T00:44:16.210Z,27.70
2023-03-21T00:49:21.308Z,19.90
2023-03-21T00:54:25.184Z,21.50
2023-03-21T00:59:30.436Z,26.10
2023-03-21T01:04:34.990Z,21.50
2023-03-21T01:09:39.831Z,24.50
2023-03-21T01:14:43.338Z,25.40
2023-03-21T01:19:51.984Z,26.10
2023-03-21T01:30:19.661Z,19.90
2023-03-21T01:35:27.005Z,20.20
2023-03-21T01:40:33.905Z,17.80
2023-03-21T01:46:08.503Z,18.40
2023-03-21T01:51:14.124Z,22.60
2023-03-21T01:56:35.052Z,34.60
2023-03-21T02:01:42.692Z,19.20
2023-03-21T02:07:04.093Z,23.90
2023-03-21T02:12:09.705Z,21.70
2023-03-21T02:17:42.130Z,31.10
2023-03-21T02:23:15.304Z,30.20
2023-03-21T02:28:51.871Z,21.20
2023-03-21T02:34:44.148Z,28.00
2023-03-21T02:40:17.242Z,30.70
2023-03-21T02:45:52.366Z,20.50
2023-03-21T02:51:00.993Z,20.10
2023-03-21T02:56:11.033Z,48.70
2023-03-21T03:01:14.912Z,45.50
2023-03-21T03:06:52.268Z,33.30
2023-03-21T03:12:37.055Z,25.80
2023-03-21T03:18:21.627Z,27.40
2023-03-21T03:24:03.454Z,27.40
2023-03-21T03:29:12.776Z,27.80
2023-03-21T03:34:24.603Z,42.40
2023-03-21T03:39:44.293Z,31.70
2023-03-21T03:44:49.071Z,26.80
2023-03-21T03:50:26.892Z,28.50
2023-03-21T03:55:34.896Z,50.80
2023-03-21T04:00:39.886Z,112.70
2023-03-21T04:05:46.771Z,100.00
2023-03-21T04:10:50.681Z,57.50
2023-03-21T04:15:54.340Z,52.00
2023-03-21T04:20:58.684Z,62.30
2023-03-21T04:26:04.456Z,86.40
2023-03-21T04:31:24.911Z,71.10
2023-03-21T04:36:39.470Z,48.60
2023-03-21T04:41:46.710Z,60.30
2023-03-21T04:46:50.955Z,48.00
2023-03-21T04:51:54.821Z,66.00
2023-03-21T04:56:59.728Z,48.50
2023-03-21T05:02:04.073Z,31.50
2023-03-21T05:07:08.433Z,26.80
2023-03-21T05:12:12.256Z,133.70
2023-03-21T05:17:25.334Z,45.30
2023-03-21T05:22:29.672Z,65.20
2023-03-21T05:27:36.280Z,90.10
2023-03-21T05:32:40.267Z,51.30
2023-03-21T05:37:44.627Z,29.90
2023-03-21T05:42:51.320Z,28.60
2023-03-21T05:47:57.669Z,32.30
2023-03-21T05:53:02.124Z,36.70
2023-03-21T05:58:06.375Z,29.50
2023-03-21T06:03:10.291Z,30.30
2023-03-21T06:08:14.099Z,41.00
2023-03-21T06:13:17.906Z,28.40
2023-03-21T06:18:21.841Z,34.80
2023-03-21T06:23:26.229Z,37.40
2023-03-21T06:28:31.132Z,36.90
2023-03-21T06:33:35.172Z,61.50
2023-03-21T06:38:39.142Z,51.70
2023-03-21T06:43:44.673Z,76.70
2023-03-21T06:48:49.195Z,73.20
2023-03-21T06:53:54.666Z,48.30
2023-03-21T06:58:58.948Z,35.60
2023-03-21T07:04:02.932Z,35.50
2023-03-21T07:09:08.425Z,34.50
2023-03-21T07:14:13.036Z,38.60
2023-03-21T07:19:17.297Z,35.70
2023-03-21T07:24:21.207Z,50.20
2023-03-21T07:29:25.877Z,55.80
2023-03-21T07:34:33.669Z,59.70
2023-03-21T07:39:37.642Z,86.00
2023-03-21T07:44:43.145Z,46.90
2023-03-21T07:49:47.183Z,80.20
2023-03-21T07:54:50.912Z,46.90
2023-03-21T07:59:54.844Z,31.90
2023-03-21T08:04:59.086Z,33.00
2023-03-21T08:10:03.424Z,32.80
2023-03-21T08:15:08.944Z,26.70
2023-03-21T08:20:21.569Z,22.40
2023-03-21T08:25:26.581Z,26.30
2023-03-21T08:30:31.172Z,27.30
2023-03-21T08:35:36.934Z,24.20
2023-03-21T08:40:42.470Z,22.00
2023-03-21T08:45:46.481Z,26.80
2023-03-21T08:50:50.530Z,25.50
2023-03-21T08:55:54.340Z,16.60
2023-03-21T09:00:58.273Z,18.70
2023-03-21T09:06:03.628Z,17.10
2023-03-21T09:11:08.353Z,20.80
2023-03-21T09:16:12.256Z,18.80
2023-03-21T09:21:20.732Z,19.20
2023-03-21T09:26:26.874Z,20.90
2023-03-21T09:31:31.384Z,28.20
2023-03-21T09:36:36.624Z,32.50
2023-03-21T09:41:47.817Z,28.50
2023-03-21T09:47:03.194Z,23.30
2023-03-21T09:52:52.906Z,16.60
2023-03-21T09:58:41.084Z,20.20
2023-03-21T10:03:45.318Z,14.40
2023-03-21T10:08:49.951Z,18.00
2023-03-21T10:14:05.060Z,20.00
2023-03-21T10:19:19.499Z,34.40
2023-03-21T10:24:28.703Z,20.50
2023-03-21T10:29:44.034Z,44.00
2023-03-21T10:40:09.540Z,20.10
2023-03-21T10:45:20.442Z,24.90
2023-03-21T10:50:30.547Z,19.50
2023-03-21T10:55:36.578Z,20.60
2023-03-21T11:00:45.978Z,26.20
2023-03-21T11:05:57.821Z,32.30
2023-03-21T11:11:09.071Z,22.80
2023-03-21T11:16:27.855Z,46.40
2023-03-21T11:21:38.934Z,18.90
2023-03-21T11:26:48.500Z,21.60
2023-03-21T11:31:53.315Z,13.70
2023-03-21T11:37:03.105Z,17.10
2023-03-21T11:42:31.760Z,21.70
2023-03-21T11:47:35.963Z,14.20
2023-03-21T11:52:50.171Z,16.30
2023-03-21T11:58:33.774Z,9.80
2023-03-21T12:04:03.304Z,15.40
2023-03-21T12:09:50.234Z,20.50
2023-03-21T12:15:19.133Z,19.60
2023-03-21T12:20:59.335Z,18.70
2023-03-21T12:26:28.532Z,14.10
2023-03-21T12:32:16.242Z,18.90
2023-03-21T12:37:58.940Z,23.60
2023-03-21T12:43:25.598Z,19.70
2023-03-21T12:49:37.113Z,25.70
2023-03-21T12:55:07.656Z,21.00
2023-03-21T13:00:48.827Z,25.50
2023-03-21T13:06:06.613Z,22.20
2023-03-21T13:11:24.031Z,25.20
2023-03-21T13:16:32.772Z,36.30
2023-03-21T13:32:09.430Z,35.50
2023-03-21T13:37:19.012Z,108.00
2023-03-21T13:42:36.240Z,99.80
2023-03-21T13:47:56.056Z,37.10
2023-03-21T13:53:02.786Z,23.60
2023-03-21T13:58:32.868Z,20.80
2023-03-21T14:03:36.871Z,19.50
2023-03-21T14:08:49.462Z,17.70
2023-03-21T14:13:54.808Z,15.40
2023-03-21T14:19:05.623Z,19.20
2023-03-21T14:24:20.207Z,55.90
2023-03-21T14:29:33.976Z,36.40
2023-03-21T14:34:38.755Z,41.70
2023-03-21T14:39:43.058Z,19.00
2023-03-21T14:44:56.020Z,15.60
2023-03-21T14:50:03.718Z,18.00
2023-03-21T14:55:17.323Z,20.70
2023-03-21T15:00:30.451Z,21.40
2023-03-21T15:05:38.433Z,64.80
2023-03-21T15:10:43.586Z,42.90
2023-03-21T15:15:48.768Z,30.70
2023-03-21T15:20:56.630Z,45.70
2023-03-21T15:26:05.822Z,274.00
2023-03-21T15:31:21.736Z,89.70
2023-03-21T15:36:37.041Z,295.50
2023-03-21T15:41:45.310Z,227.50
2023-03-21T15:46:53.106Z,48.50
2023-03-21T15:52:14.945Z,59.90
2023-03-21T15:57:38.373Z,55.60
2023-03-21T16:02:45.088Z,263.20
2023-03-21T16:07:49.253Z,197.00
2023-03-21T16:12:53.674Z,323.80
2023-03-21T16:18:02.039Z,220.40
2023-03-21T16:23:06.707Z,609.90
2023-03-21T16:28:17.926Z,310.90
2023-03-21T16:33:22.331Z,137.50
2023-03-21T16:38:27.050Z,145.70
2023-03-21T16:43:31.086Z,171.30
2023-03-21T16:48:35.321Z,143.40
2023-03-21T16:53:39.424Z,342.40
2023-03-21T16:58:43.894Z,383.40
2023-03-21T17:03:49.434Z,277.00
2023-03-21T17:09:02.484Z,341.80
2023-03-21T17:14:09.246Z,203.00
2023-03-21T17:19:18.417Z,162.60
2023-03-21T17:24:24.071Z,117.40
2023-03-21T17:29:40.936Z,110.10
2023-03-21T17:34:45.398Z,70.20
2023-03-21T17:39:49.664Z,163.10
2023-03-21T17:44:54.055Z,111.00
2023-03-21T17:49:57.988Z,169.20
2023-03-21T17:55:02.429Z,93.30
2023-03-21T18:00:14.297Z,63.70
2023-03-21T18:05:19.811Z,90.70
2023-03-21T18:10:27.910Z,98.40
2023-03-21T18:15:31.994Z,101.80
2023-03-21T18:20:51.717Z,105.20
2023-03-21T18:25:56.418Z,153.10
2023-03-21T18:31:10.519Z,148.50
2023-03-21T18:36:28.620Z,142.20
2023-03-21T18:41:33.536Z,383.10
2023-03-21T18:46:38.028Z,180.30
2023-03-21T18:51:47.070Z,158.30
2023-03-21T19:02:17.404Z,134.10
2023-03-21T19:07:22.219Z,90.90
2023-03-21T19:12:27.998Z,118.00
2023-03-21T19:22:57.537Z,111.10
2023-03-21T19:28:02.944Z,185.00
2023-03-21T19:33:07.880Z,302.50
2023-03-21T19:38:12.896Z,287.00
2023-03-21T19:43:33.545Z,282.50
2023-03-21T19:48:41.805Z,226.30
2023-03-21T19:53:46.204Z,203.20
2023-03-21T19:58:50.247Z,230.10
2023-03-21T20:03:54.547Z,212.00
2023-03-21T20:09:41.383Z,166.10
2023-03-21T20:14:22.601Z,153.90
2023-03-21T20:19:26.840Z,162.10
2023-03-21T20:24:30.876Z,212.40
2023-03-21T20:35:16.914Z,189.90
2023-03-21T20:40:23.198Z,240.70
2023-03-21T20:45:27.338Z,176.30
2023-03-21T20:50:33.207Z,195.50
2023-03-21T20:55:37.647Z,244.80
2023-03-21T21:00:43.537Z,174.80
2023-03-21T21:05:48.155Z,431.90
2023-03-21T21:11:27.688Z,239.30
2023-03-21T21:16:17.327Z,136.20
2023-03-21T21:21:21.438Z,140.10
2023-03-21T21:26:25.120Z,202.00
2023-03-21T21:31:29.015Z,154.50
2023-03-21T21:36:32.657Z,138.20
2023-03-21T21:41:36.566Z,109.90
2023-03-21T21:46:40.315Z,82.50
2023-03-21T21:51:47.746Z,115.60
2023-03-21T21:56:54.612Z,94.10
2023-03-21T22:02:01.691Z,109.90
2023-03-21T22:07:06.542Z,92.90
2023-03-21T22:12:10.477Z,79.20
2023-03-21T22:17:14.512Z,94.60
2023-03-21T22:22:18.553Z,92.50
2023-03-21T22:27:23.472Z,75.70
2023-03-21T22:32:28.184Z,82.80
2023-03-21T22:37:35.255Z,81.20
2023-03-21T22:42:40.299Z,82.90
2023-03-21T22:47:44.261Z,99.80
2023-03-21T22:52:48.281Z,72.10
2023-03-21T22:57:53.832Z,72.90
2023-03-21T23:03:00.797Z,78.50
2023-03-21T23:08:07.016Z,65.00
2023-03-21T23:13:14.356Z,63.60
2023-03-21T23:18:20.730Z,70.50
2023-03-21T23:23:27.974Z,67.90
2023-03-21T23:28:33.374Z,71.50
2023-03-21T23:33:39.944Z,67.00
2023-03-21T23:38:48.451Z,74.30
2023-03-21T23:43:57.874Z,73.30
2023-03-21T23:49:04.763Z,71.80
2023-03-21T23:54:12.241Z,63.70
2023-03-21T23:59:20.177Z,66.30
